KSAN/SAN METAR and TAF weather

Enter ICAO airport designator
Station Type Date Time Source
KSAN METAR 2020/08/11 00:51 UTC NOAA

KSAN 110051Z 31007KT 10SM FEW015 FEW250 22/16 A2990 RMK AO2 SLP125 T02170156


Station Type Date Time Source
KSAN Decoded METAR 2020/08/11 00:51 UTC NOAA

SAN DIEGO INTERNATIONAL \LINDBERGH FLD, CA, United States (KSAN) 32-44N 117-11W 12M
Aug 10, 2020 - 08:51 PM EDT / 2020.08.11 0051 UTC
Wind: from the NW (310 degrees) at 8 MPH (7 KT):0
Visibility: 10 mile(s):0
Sky conditions: mostly clear
Temperature: 71.1 F (21.7 C)
Dew Point: 60.1 F (15.6 C)
Relative Humidity: 68%
Pressure (altimeter): 29.9 in. Hg (1012 hPa)
ob: KSAN 110051Z 31007KT 10SM FEW015 FEW250 22/16 A2990 RMK AO2 SLP125 T02170156
cycle: 1

Station Type Date Time Source
KSAN TAF 2020/08/10 21:36 UTC NOAA

TAF
AMD KSAN 102034Z 1021/1124 30010KT P6SM FEW013
FM110300 VRB04KT P6SM SCT010
FM110500 VRB04KT P6SM OVC010
FM111700 29008KT P6SM SCT010

Example: see airport list